createdAt,value
2023-01-10T00:03:49.355Z,25.40
2023-01-10T00:09:11.337Z,26.35
2023-01-10T00:14:33.241Z,27.35
2023-01-10T00:19:55.046Z,26.45
2023-01-10T00:25:17.625Z,25.10
2023-01-10T00:30:40.306Z,27.27
2023-01-10T00:36:05.242Z,26.25
2023-01-10T00:41:27.114Z,26.88
2023-01-10T00:46:49.252Z,27.08
2023-01-10T00:52:11.079Z,26.63
2023-01-10T00:57:32.887Z,25.20
2023-01-10T01:02:55.004Z,26.70
2023-01-10T01:08:17.696Z,26.45
2023-01-10T01:13:39.517Z,25.75
2023-01-10T01:19:01.336Z,27.25
2023-01-10T01:24:23.160Z,28.42
2023-01-10T01:29:44.958Z,25.95
2023-01-10T01:35:08.754Z,28.52
2023-01-10T01:40:30.591Z,27.85
2023-01-10T01:45:53.307Z,28.67
2023-01-10T01:51:22.592Z,29.02
2023-01-10T01:56:50.672Z,29.23
2023-01-10T02:02:23.704Z,28.65
2023-01-10T02:07:49.749Z,29.33
2023-01-10T02:13:14.477Z,30.38
2023-01-10T02:18:39.530Z,30.58
2023-01-10T02:24:14.747Z,30.25
2023-01-10T02:30:00.892Z,31.00
2023-01-10T02:35:33.132Z,30.20
2023-01-10T02:41:01.315Z,31.80
2023-01-10T02:46:28.464Z,33.03
2023-01-10T02:51:50.343Z,31.63
2023-01-10T02:57:21.319Z,34.85
2023-01-10T03:02:43.096Z,32.30
2023-01-10T03:08:18.072Z,32.50
2023-01-10T03:13:55.549Z,32.88
2023-01-10T03:19:21.841Z,32.85
2023-01-10T03:24:48.452Z,32.53
2023-01-10T03:36:07.049Z,32.42
2023-01-10T03:42:16.263Z,31.05
2023-01-10T03:47:46.082Z,31.30
2023-01-10T03:53:08.032Z,30.65
2023-01-10T03:58:30.121Z,30.20
2023-01-10T04:03:51.989Z,31.25
2023-01-10T04:09:14.317Z,33.40
2023-01-10T04:14:36.128Z,30.83
2023-01-10T04:19:57.969Z,30.10
2023-01-10T04:25:19.811Z,32.22
2023-01-10T04:30:41.657Z,30.15
2023-01-10T04:36:03.600Z,30.30
2023-01-10T04:41:25.383Z,31.08
2023-01-10T04:46:47.169Z,32.83
2023-01-10T04:52:10.045Z,32.20
2023-01-10T04:57:31.923Z,31.02
2023-01-10T05:02:57.928Z,31.00
2023-01-10T05:08:19.813Z,29.35
2023-01-10T05:13:41.925Z,30.55
2023-01-10T05:19:03.740Z,30.63
2023-01-10T05:24:25.548Z,32.33
2023-01-10T05:29:47.384Z,31.52
2023-01-10T05:35:09.636Z,32.20
2023-01-10T05:40:31.475Z,32.10
2023-01-10T05:45:53.830Z,31.00
2023-01-10T05:51:15.898Z,34.83
2023-01-10T05:56:37.757Z,34.15
2023-01-10T06:01:59.681Z,36.15
2023-01-10T06:07:22.567Z,35.75
2023-01-10T06:12:44.484Z,34.00
2023-01-10T06:18:07.126Z,36.35
2023-01-10T06:23:29.040Z,35.67
2023-01-10T06:28:50.911Z,35.05
2023-01-10T06:34:12.891Z,34.80
2023-01-10T06:39:34.734Z,35.47
2023-01-10T06:44:56.794Z,34.72
2023-01-10T06:50:18.777Z,34.03
2023-01-10T06:55:40.641Z,35.83
2023-01-10T07:01:02.872Z,35.08
2023-01-10T07:06:24.896Z,35.55
2023-01-10T07:11:46.741Z,35.72
2023-01-10T07:17:08.570Z,33.33
2023-01-10T07:22:30.360Z,34.67
2023-01-10T07:27:52.178Z,36.13
2023-01-10T07:33:14.059Z,38.17
2023-01-10T07:38:37.758Z,38.53
2023-01-10T07:43:59.600Z,36.10
2023-01-10T07:49:21.470Z,35.13
2023-01-10T07:54:43.286Z,36.28
2023-01-10T08:00:05.540Z,36.70
2023-01-10T08:05:27.561Z,39.33
2023-01-10T08:10:49.449Z,36.53
2023-01-10T08:16:11.341Z,36.30
2023-01-10T08:21:33.254Z,33.97
2023-01-10T08:26:58.409Z,34.83
2023-01-10T08:32:20.395Z,35.20
2023-01-10T08:37:42.250Z,34.50
2023-01-10T08:43:06.846Z,33.30
2023-01-10T08:48:28.669Z,33.28
2023-01-10T08:53:50.571Z,35.13
2023-01-10T08:59:12.424Z,34.03
2023-01-10T09:04:34.340Z,34.67
2023-01-10T09:09:56.213Z,33.85
2023-01-10T09:15:18.129Z,34.33
2023-01-10T09:20:41.392Z,31.90
2023-01-10T09:26:03.345Z,31.77
2023-01-10T09:31:25.187Z,30.38
2023-01-10T09:36:47.031Z,34.22
2023-01-10T09:42:25.297Z,31.13
2023-01-10T09:48:03.182Z,29.05
2023-01-10T09:53:30.767Z,31.17
2023-01-10T09:58:52.872Z,30.75
2023-01-10T10:04:17.773Z,29.90
2023-01-10T10:09:40.093Z,31.70
2023-01-10T10:15:17.189Z,32.20
2023-01-10T10:21:02.623Z,32.10
2023-01-10T10:26:37.735Z,31.53
2023-01-10T10:32:35.936Z,31.88
2023-01-10T10:38:05.480Z,33.13
2023-01-10T10:43:38.986Z,30.00
2023-01-10T10:49:11.478Z,31.50
2023-01-10T10:54:35.419Z,31.63
2023-01-10T11:00:00.059Z,28.60
2023-01-10T11:05:29.899Z,30.65
2023-01-10T11:10:56.857Z,29.73
2023-01-10T11:16:31.819Z,33.28
2023-01-10T11:22:06.506Z,29.55
2023-01-10T11:27:31.871Z,30.30
2023-01-10T11:33:05.827Z,29.40
2023-01-10T11:38:28.629Z,29.38
2023-01-10T11:43:50.498Z,27.35
2023-01-10T11:49:18.038Z,27.83
2023-01-10T11:54:41.494Z,26.48
2023-01-10T12:00:10.180Z,26.20
2023-01-10T12:05:32.100Z,26.70
2023-01-10T12:11:06.650Z,27.38
2023-01-10T12:16:35.081Z,25.00
2023-01-10T12:22:02.815Z,21.80
2023-01-10T12:27:27.959Z,23.80
2023-01-10T12:32:52.976Z,24.33
2023-01-10T12:38:26.640Z,25.15
2023-01-10T12:43:48.478Z,24.58
2023-01-10T12:49:28.476Z,24.10
2023-01-10T12:54:50.426Z,24.65
2023-01-10T13:00:27.117Z,23.73
2023-01-10T13:05:50.127Z,23.73
2023-01-10T13:11:18.811Z,22.98
2023-01-10T13:16:52.819Z,23.40
2023-01-10T13:22:23.839Z,24.15
2023-01-10T13:27:45.849Z,22.58
2023-01-10T13:33:29.989Z,24.77
2023-01-10T13:38:58.835Z,22.85
2023-01-10T13:44:20.855Z,21.08
2023-01-10T13:49:44.035Z,20.90
2023-01-10T13:55:44.148Z,21.05
2023-01-10T14:01:24.226Z,22.23
2023-01-10T14:06:53.896Z,20.75
2023-01-10T14:12:37.359Z,20.48
2023-01-10T14:18:03.255Z,22.10
2023-01-10T14:23:31.981Z,22.50
2023-01-10T14:28:54.160Z,24.33
2023-01-10T14:34:22.734Z,23.58
2023-01-10T14:39:45.290Z,22.55
2023-01-10T14:45:49.068Z,22.88
2023-01-10T14:51:25.377Z,22.40
2023-01-10T14:56:53.930Z,23.60
2023-01-10T15:02:20.600Z,21.83
2023-01-10T15:07:42.566Z,21.25
2023-01-10T15:13:06.336Z,21.52
2023-01-10T15:18:44.659Z,20.63
2023-01-10T15:24:33.670Z,19.45
2023-01-10T15:29:56.623Z,19.17
2023-01-10T15:35:23.942Z,18.60
2023-01-10T15:40:57.114Z,19.08
2023-01-10T15:46:24.105Z,18.33
2023-01-10T15:51:47.622Z,18.05
2023-01-10T15:57:24.618Z,18.67
2023-01-10T16:02:46.682Z,18.52
2023-01-10T16:08:09.263Z,18.35
2023-01-10T16:13:31.311Z,17.50
2023-01-10T16:18:53.161Z,17.73
2023-01-10T16:24:24.101Z,18.90
2023-01-10T16:29:45.955Z,19.08
2023-01-10T16:35:08.101Z,18.60
2023-01-10T16:40:56.744Z,20.25
2023-01-10T16:46:18.624Z,21.35
2023-01-10T16:51:40.632Z,21.92
2023-01-10T16:57:02.457Z,22.15
2023-01-10T17:02:24.331Z,23.08
2023-01-10T17:07:46.149Z,23.70
2023-01-10T17:13:07.997Z,22.17
2023-01-10T17:18:29.882Z,22.88
2023-01-10T17:23:51.797Z,23.27
2023-01-10T17:29:13.785Z,23.42
2023-01-10T17:34:35.621Z,24.20
2023-01-10T17:39:57.620Z,24.60
2023-01-10T17:45:19.462Z,24.45
2023-01-10T17:50:42.580Z,24.35
2023-01-10T17:56:06.347Z,24.27
2023-01-10T18:01:28.361Z,23.67
2023-01-10T18:06:50.246Z,26.33
2023-01-10T18:12:12.128Z,28.42
2023-01-10T18:17:34.067Z,24.35
2023-01-10T18:22:55.897Z,24.15
2023-01-10T18:28:21.483Z,23.77
2023-01-10T18:33:46.767Z,24.27
2023-01-10T18:39:08.697Z,23.27
2023-01-10T18:44:30.612Z,24.05
2023-01-10T18:49:52.538Z,23.20
2023-01-10T18:55:14.425Z,21.83
2023-01-10T19:00:36.294Z,22.20
2023-01-10T19:06:00.184Z,24.15
2023-01-10T19:11:22.199Z,22.55
2023-01-10T19:16:44.037Z,23.90
2023-01-10T19:22:05.853Z,23.52
2023-01-10T19:27:27.750Z,22.80
2023-01-10T19:32:49.593Z,21.88
2023-01-10T19:38:11.742Z,25.02
2023-01-10T19:43:33.910Z,22.70
2023-01-10T19:48:56.250Z,21.50
2023-01-10T19:54:18.417Z,21.65
2023-01-10T19:59:40.271Z,21.63
2023-01-10T20:05:02.187Z,24.35
2023-01-10T20:10:24.066Z,22.15
2023-01-10T20:15:45.996Z,22.38
2023-01-10T20:21:09.789Z,20.95
2023-01-10T20:26:31.609Z,21.98
2023-01-10T20:31:53.578Z,22.85
2023-01-10T20:37:15.399Z,22.50
2023-01-10T20:42:38.566Z,20.75
2023-01-10T20:48:01.343Z,23.55
2023-01-10T20:53:23.269Z,23.52
2023-01-10T20:58:45.388Z,21.42
2023-01-10T21:04:07.569Z,24.25
2023-01-10T21:09:29.518Z,23.13
2023-01-10T21:14:51.357Z,25.13
2023-01-10T21:20:13.369Z,24.25
2023-01-10T21:25:35.364Z,25.30
2023-01-10T21:30:57.184Z,26.95
2023-01-10T21:36:19.034Z,34.08
2023-01-10T21:41:40.842Z,33.60
2023-01-10T21:47:03.005Z,36.30
2023-01-10T21:52:24.909Z,36.20
2023-01-10T21:57:46.787Z,38.67
2023-01-10T22:03:08.643Z,33.85
2023-01-10T22:08:30.524Z,32.08
2023-01-10T22:13:52.403Z,30.80
2023-01-10T22:19:14.286Z,31.08
2023-01-10T22:24:36.369Z,30.63
2023-01-10T22:29:58.245Z,30.65
2023-01-10T22:35:20.084Z,30.25
2023-01-10T22:40:41.935Z,30.02
2023-01-10T22:46:04.523Z,29.27
2023-01-10T22:51:26.731Z,29.50
2023-01-10T22:56:48.569Z,28.92
2023-01-10T23:02:10.478Z,28.30
2023-01-10T23:07:32.545Z,27.75
2023-01-10T23:12:54.415Z,28.42
2023-01-10T23:18:16.233Z,28.35
2023-01-10T23:23:38.082Z,27.85
2023-01-10T23:28:59.978Z,25.67
2023-01-10T23:34:21.850Z,27.88
2023-01-10T23:39:43.679Z,25.55
2023-01-10T23:45:06.192Z,25.70
2023-01-10T23:50:28.139Z,23.70
2023-01-10T23:55:50.082Z,25.20
